Time;durP1;ratioP1;P1;durP2;ratioP2;P2;SDS_P1;SDS_P2;PMS_P1;PMS_P2;Temp;Humidity;BMP_temperature;BMP_pressure;BME280_temperature;BME280_humidity;BME280_pressure;Samples;Min_cycle;Max_cycle;Signal;HPM_P1;HPM_P2
2021/05/16 00:04:38;;;;;;;1.33;0.80;;;21.00;53.20;;;;;;10493144;28;20212;-9
2021/05/16 00:09:59;;;;;;;0.90;0.80;;;21.00;53.30;;;;;;10492528;28;20676;-10
2021/05/16 00:15:24;;;;;;;1.23;0.80;;;20.90;53.40;;;;;;10492700;28;20212;-8
2021/05/16 00:20:46;;;;;;;0.60;0.60;;;21.00;53.40;;;;;;10489263;28;20189;-12
2021/05/16 00:26:08;;;;;;;0.53;0.53;;;20.90;53.30;;;;;;10491390;28;20212;-9
2021/05/16 00:31:31;;;;;;;0.67;0.67;;;21.00;53.40;;;;;;10487155;28;20224;-8
2021/05/16 00:36:52;;;;;;;0.67;0.67;;;21.00;53.30;;;;;;10490430;28;20627;-9
2021/05/16 00:42:14;;;;;;;1.13;0.70;;;21.00;53.30;;;;;;10492314;28;20196;-9
2021/05/16 00:47:38;;;;;;;0.70;0.70;;;21.00;53.40;;;;;;10493022;28;20700;-9
2021/05/16 00:53:00;;;;;;;1.33;0.77;;;21.00;53.30;;;;;;10493515;28;20189;-11
2021/05/16 00:58:21;;;;;;;0.70;0.60;;;21.00;53.10;;;;;;10492128;28;20238;-8
2021/05/16 01:03:44;;;;;;;1.80;0.90;;;21.00;53.10;;;;;;10491712;28;20696;-10
2021/05/16 01:09:08;;;;;;;1.10;0.70;;;21.00;53.20;;;;;;10491510;28;20224;-9
2021/05/16 01:14:33;;;;;;;0.90;0.70;;;20.90;53.40;;;;;;10491676;28;20621;-8
2021/05/16 01:19:55;;;;;;;0.70;0.60;;;20.90;53.30;;;;;;10491298;28;20683;-9
2021/05/16 01:25:18;;;;;;;1.20;0.90;;;21.00;53.20;;;;;;10497900;28;20220;-7
2021/05/16 01:30:40;;;;;;;0.70;0.70;;;20.90;53.30;;;;;;10498953;28;20212;-8
2021/05/16 01:36:02;;;;;;;0.70;0.70;;;20.90;53.40;;;;;;10498243;28;20212;-8
2021/05/16 01:41:25;;;;;;;0.50;0.50;;;20.90;53.40;;;;;;10492709;28;20192;-9
2021/05/16 01:46:46;;;;;;;2.33;0.70;;;20.90;53.30;;;;;;10497935;28;20258;-9
2021/05/16 01:52:09;;;;;;;1.03;0.57;;;21.00;53.20;;;;;;10497996;28;20239;-10
2021/05/16 01:57:32;;;;;;;0.67;0.67;;;20.90;53.20;;;;;;10498718;28;20228;-8
2021/05/16 02:02:54;;;;;;;0.60;0.60;;;21.00;53.10;;;;;;10498200;28;20189;-10
2021/05/16 02:08:18;;;;;;;0.87;0.80;;;21.00;53.00;;;;;;10497158;28;20208;-9
2021/05/16 02:13:42;;;;;;;0.80;0.60;;;20.90;53.10;;;;;;10495626;28;20197;-11
2021/05/16 02:19:04;;;;;;;0.70;0.63;;;20.90;53.00;;;;;;10496972;28;20215;-11
2021/05/16 02:24:25;;;;;;;0.90;0.80;;;21.00;53.00;;;;;;10496011;28;20586;-8
2021/05/16 02:29:48;;;;;;;0.70;0.70;;;20.90;53.10;;;;;;10492630;28;20270;-8
2021/05/16 02:35:12;;;;;;;0.50;0.50;;;21.00;53.00;;;;;;10495656;28;20650;-9
2021/05/16 02:40:34;;;;;;;0.97;0.63;;;20.90;53.20;;;;;;10495487;28;20616;-9
2021/05/16 02:45:56;;;;;;;0.73;0.73;;;21.00;53.10;;;;;;10496375;28;20231;-9
2021/05/16 02:51:20;;;;;;;0.73;0.70;;;20.90;53.10;;;;;;10494678;28;20220;-8
2021/05/16 02:56:41;;;;;;;0.50;0.50;;;20.90;53.20;;;;;;10495217;28;20306;-11
2021/05/16 03:02:04;;;;;;;0.77;0.70;;;20.90;53.20;;;;;;10495285;28;20185;-8
2021/05/16 03:07:26;;;;;;;0.70;0.70;;;21.00;52.90;;;;;;10494025;28;20223;-8
2021/05/16 03:12:47;;;;;;;0.50;0.43;;;21.00;52.80;;;;;;10494783;28;20222;-7
2021/05/16 03:18:10;;;;;;;0.50;0.50;;;21.00;53.00;;;;;;10494874;28;20216;-11
2021/05/16 03:23:32;;;;;;;0.67;0.60;;;21.00;53.00;;;;;;10500329;28;20193;-9
2021/05/16 03:28:54;;;;;;;0.60;0.60;;;21.00;52.80;;;;;;10493417;28;20231;-10
2021/05/16 03:34:16;;;;;;;0.50;0.50;;;21.00;52.70;;;;;;10493913;28;20197;-8
2021/05/16 03:39:38;;;;;;;0.70;0.50;;;21.00;52.80;;;;;;10494145;28;20193;-9
2021/05/16 03:45:00;;;;;;;0.50;0.50;;;21.00;53.00;;;;;;10493131;28;20326;-9
2021/05/16 03:50:22;;;;;;;1.37;0.60;;;21.00;52.80;;;;;;10518465;22;20235;-11
2021/05/16 03:55:44;;;;;;;0.47;0.47;;;21.00;52.90;;;;;;10504142;28;20188;-12
2021/05/16 04:01:06;;;;;;;0.70;0.70;;;21.00;52.90;;;;;;10504400;28;20564;-12
2021/05/16 04:06:28;;;;;;;0.50;0.50;;;21.00;52.90;;;;;;10487516;28;20696;-12
2021/05/16 04:11:50;;;;;;;0.60;0.60;;;20.90;52.90;;;;;;10489025;28;20220;-11
2021/05/16 04:17:12;;;;;;;0.57;0.50;;;21.00;52.90;;;;;;10484283;28;20565;-14
2021/05/16 04:22:34;;;;;;;0.60;0.60;;;21.00;52.80;;;;;;10492583;28;20235;-11
2021/05/16 04:27:56;;;;;;;0.93;0.50;;;21.10;52.70;;;;;;10492302;28;20193;-13
2021/05/16 04:33:17;;;;;;;0.50;0.50;;;21.00;52.70;;;;;;10476843;28;20701;-12
2021/05/16 04:38:40;;;;;;;0.60;0.60;;;21.10;52.50;;;;;;10479904;28;20216;-13
2021/05/16 04:44:03;;;;;;;0.60;0.60;;;21.10;52.60;;;;;;10483692;28;20239;-13
2021/05/16 04:49:24;;;;;;;0.50;0.43;;;21.10;52.50;;;;;;10483369;28;20224;-12
2021/05/16 04:54:47;;;;;;;0.53;0.40;;;21.00;52.70;;;;;;10493740;28;20699;-13
2021/05/16 05:00:09;;;;;;;0.57;0.43;;;21.10;52.60;;;;;;10500731;28;20239;-12
2021/05/16 05:05:31;;;;;;;0.70;0.70;;;21.10;52.50;;;;;;10498774;28;20193;-13
2021/05/16 05:10:54;;;;;;;1.13;0.50;;;20.90;52.80;;;;;;10500435;28;20223;-11
2021/05/16 05:16:16;;;;;;;0.40;0.40;;;20.90;53.50;;;;;;10498532;28;20192;-13
2021/05/16 05:21:37;;;;;;;0.83;0.60;;;21.00;52.80;;;;;;10499994;28;20216;-12
2021/05/16 05:27:00;;;;;;;0.50;0.50;;;21.00;52.80;;;;;;10498244;28;20204;-12
2021/05/16 05:32:21;;;;;;;0.50;0.50;;;21.00;52.70;;;;;;10491858;28;20249;-12
2021/05/16 05:37:43;;;;;;;1.03;0.50;;;21.00;52.80;;;;;;10498314;28;20607;-11
2021/05/16 05:43:06;;;;;;;0.43;0.43;;;21.10;52.70;;;;;;10498243;28;20247;-14
2021/05/16 05:48:27;;;;;;;0.73;0.60;;;21.10;52.70;;;;;;10497394;28;20217;-11
2021/05/16 05:53:49;;;;;;;1.13;0.80;;;21.00;52.80;;;;;;10498181;28;20228;-13
2021/05/16 05:59:13;;;;;;;0.70;0.70;;;21.00;52.80;;;;;;10497022;28;20203;-12
2021/05/16 06:04:35;;;;;;;0.50;0.40;;;21.20;52.50;;;;;;10497920;28;20269;-13
2021/05/16 06:09:56;;;;;;;0.70;0.70;;;21.10;52.50;;;;;;10486527;28;20279;-12
2021/05/16 06:15:19;;;;;;;0.50;0.50;;;21.00;52.70;;;;;;10479590;28;20204;-13
2021/05/16 06:20:41;;;;;;;0.77;0.70;;;21.00;52.80;;;;;;10497451;28;20219;-11
2021/05/16 06:26:02;;;;;;;0.87;0.50;;;21.00;52.80;;;;;;10496428;28;20193;-13
2021/05/16 06:31:25;;;;;;;0.53;0.53;;;21.00;52.90;;;;;;10496682;28;20221;-14
2021/05/16 06:36:47;;;;;;;1.60;0.67;;;21.00;53.00;;;;;;10497241;28;20192;-13
2021/05/16 06:42:08;;;;;;;1.43;0.60;;;21.00;52.80;;;;;;10496797;28;20234;-15
2021/05/16 06:47:31;;;;;;;1.20;0.80;;;21.00;52.70;;;;;;10492077;28;20200;-12
2021/05/16 06:52:52;;;;;;;1.00;0.60;;;21.00;52.50;;;;;;10486619;28;20217;-12
2021/05/16 06:58:14;;;;;;;0.70;0.70;;;21.10;52.50;;;;;;10487930;28;20723;-11
2021/05/16 07:03:39;;;;;;;1.90;0.50;;;21.00;52.50;;;;;;10494304;28;20224;-12
2021/05/16 07:09:02;;;;;;;1.47;0.80;;;21.00;52.70;;;;;;10495390;28;20208;-12
2021/05/16 07:14:24;;;;;;;4.80;1.00;;;21.00;52.90;;;;;;10494341;28;20419;-13
2021/05/16 07:19:46;;;;;;;1.80;1.00;;;21.40;51.50;;;;;;10494229;28;20203;-13
2021/05/16 07:25:09;;;;;;;1.03;1.00;;;21.20;52.20;;;;;;10493740;28;20197;-13
2021/05/16 07:30:30;;;;;;;1.17;0.80;;;21.10;52.60;;;;;;10492558;28;20227;-13
2021/05/16 07:35:53;;;;;;;1.23;1.10;;;21.00;52.60;;;;;;10493135;28;20197;-12
2021/05/16 07:41:15;;;;;;;3.70;0.93;;;21.00;52.60;;;;;;10493986;28;20220;-12
2021/05/16 07:46:37;;;;;;;2.33;0.83;;;21.00;52.80;;;;;;10493858;28;20188;-11
2021/05/16 07:51:59;;;;;;;1.73;0.93;;;21.00;52.70;;;;;;10490275;28;20220;-12
2021/05/16 07:57:21;;;;;;;2.00;0.97;;;21.10;52.50;;;;;;10492304;28;20234;-13
2021/05/16 08:02:43;;;;;;;2.23;1.00;;;21.10;52.50;;;;;;10492673;28;20211;-13
2021/05/16 08:08:06;;;;;;;2.30;1.07;;;21.10;52.50;;;;;;10492727;28;20208;-14
2021/05/16 08:13:28;;;;;;;2.43;1.20;;;21.20;52.20;;;;;;10492586;28;20216;-13
2021/05/16 08:18:52;;;;;;;1.00;0.90;;;21.20;52.10;;;;;;10483196;28;20219;-13
2021/05/16 08:24:15;;;;;;;0.80;0.80;;;21.20;52.30;;;;;;10492762;28;20599;-11
2021/05/16 08:29:37;;;;;;;3.23;0.90;;;21.10;52.90;;;;;;10494160;28;20565;-13
2021/05/16 08:34:59;;;;;;;1.63;0.90;;;21.10;52.80;;;;;;10501519;28;20187;-12
2021/05/16 08:40:22;;;;;;;1.43;0.83;;;21.10;52.80;;;;;;10501385;28;20703;-13
2021/05/16 08:45:43;;;;;;;1.47;0.90;;;21.00;52.70;;;;;;10500573;28;20242;-13
2021/05/16 08:51:05;;;;;;;1.40;1.00;;;21.00;52.90;;;;;;10500187;28;20786;-12
2021/05/16 08:56:27;;;;;;;1.37;0.83;;;21.00;52.90;;;;;;10493886;28;20203;-14
2021/05/16 09:01:50;;;;;;;5.20;1.20;;;20.90;53.10;;;;;;10493508;28;20223;-11
2021/05/16 09:07:12;;;;;;;3.90;1.20;;;21.00;53.10;;;;;;10478809;28;20192;-11
2021/05/16 09:12:39;;;;;;;6.40;1.50;;;21.00;53.10;;;;;;10498337;28;20226;-13
2021/05/16 09:18:01;;;;;;;7.13;1.83;;;21.00;53.50;;;;;;10496875;28;20833;-13
2021/05/16 09:23:22;;;;;;;4.80;1.40;;;21.60;51.70;;;;;;10495488;28;20657;-14
2021/05/16 09:28:45;;;;;;;3.77;1.20;;;21.70;51.90;;;;;;10496579;28;20200;-12
2021/05/16 09:34:07;;;;;;;10.43;1.67;;;22.30;50.50;;;;;;10497815;28;20208;-13
2021/05/16 09:39:30;;;;;;;6.53;1.40;;;22.90;49.30;;;;;;10496868;28;20210;-11
2021/05/16 09:44:54;;;;;;;13.27;1.70;;;23.10;48.70;;;;;;10473244;28;20243;-11
2021/05/16 09:50:16;;;;;;;13.02;2.25;;;22.60;49.10;;;;;;10499306;28;20445;-12
2021/05/16 09:55:38;;;;;;;7.70;1.97;;;22.40;50.20;;;;;;10518926;28;20622;-12
2021/05/16 10:01:01;;;;;;;7.90;1.73;;;22.60;49.80;;;;;;10541417;22;20235;-15
2021/05/16 10:06:24;;;;;;;4.03;1.70;;;22.80;49.50;;;;;;10522301;28;20223;-15
2021/05/16 10:11:45;;;;;;;6.60;1.50;;;23.10;48.90;;;;;;10523308;28;20601;-11
2021/05/16 10:17:09;;;;;;;6.00;1.50;;;23.20;48.40;;;;;;10439114;28;20591;-12
2021/05/16 10:22:31;;;;;;;8.03;1.73;;;23.40;48.00;;;;;;10398532;28;20201;-15
2021/05/16 10:27:52;;;;;;;7.53;1.43;;;23.50;47.80;;;;;;10397133;28;20225;-11
2021/05/16 10:33:30;;;;;;;6.33;1.90;;;23.30;47.70;;;;;;10381087;28;20222;-12
2021/05/16 10:38:52;;;;;;;8.47;1.67;;;22.70;49.00;;;;;;10372181;28;20699;-11
2021/05/16 10:44:29;;;;;;;9.23;1.70;;;22.40;50.20;;;;;;10380637;28;20261;-11
2021/05/16 10:49:54;;;;;;;4.53;1.40;;;22.20;50.70;;;;;;10372534;28;20215;-14
2021/05/16 10:55:25;;;;;;;6.53;1.50;;;22.00;50.70;;;;;;10374767;28;20209;-13
2021/05/16 11:00:47;;;;;;;5.33;1.73;;;22.00;50.80;;;;;;10402368;28;20226;-12
2021/05/16 11:06:10;;;;;;;4.90;1.87;;;21.90;51.10;;;;;;10394593;28;20198;-12
2021/05/16 11:11:33;;;;;;;5.70;1.93;;;21.80;51.10;;;;;;10407392;28;20218;-13
2021/05/16 11:16:58;;;;;;;4.50;1.83;;;21.80;51.30;;;;;;10392991;28;20208;-11
2021/05/16 11:22:21;;;;;;;3.17;1.63;;;21.70;51.40;;;;;;10408568;28;20210;-14
2021/05/16 11:27:42;;;;;;;3.60;1.93;;;21.80;51.30;;;;;;10393154;28;20252;-12
2021/05/16 11:33:04;;;;;;;2.73;1.60;;;21.80;51.30;;;;;;10379875;28;20264;-12
2021/05/16 11:38:28;;;;;;;2.10;1.50;;;21.80;51.40;;;;;;10393171;28;20218;-12
2021/05/16 11:43:50;;;;;;;5.07;1.73;;;21.80;51.40;;;;;;10389669;28;20252;-11
2021/05/16 11:49:15;;;;;;;3.30;1.47;;;21.70;51.60;;;;;;10382163;28;20498;-12
2021/05/16 11:54:43;;;;;;;1.83;1.40;;;21.60;51.70;;;;;;10379366;28;20998;-14
2021/05/16 12:00:09;;;;;;;2.93;1.70;;;21.60;51.70;;;;;;10375270;28;20218;-15
2021/05/16 12:05:31;;;;;;;2.43;1.40;;;21.60;51.80;;;;;;10368904;28;20202;-15
2021/05/16 12:11:06;;;;;;;1.97;1.40;;;21.60;52.00;;;;;;10402902;28;20391;-14
2021/05/16 12:16:27;;;;;;;3.83;1.80;;;21.60;51.90;;;;;;10397690;28;20273;-12
2021/05/16 12:21:51;;;;;;;1.77;1.27;;;21.60;52.00;;;;;;10393595;28;20236;-12
2021/05/16 12:27:14;;;;;;;2.80;1.50;;;21.50;52.00;;;;;;10389273;28;20194;-15
2021/05/16 12:32:36;;;;;;;1.50;1.40;;;21.80;51.40;;;;;;10368070;28;20642;-14
2021/05/16 12:38:10;;;;;;;2.70;1.47;;;22.30;50.20;;;;;;10367652;28;20714;-14
2021/05/16 12:43:32;;;;;;;2.30;1.30;;;22.90;49.00;;;;;;10368176;28;20190;-14
2021/05/16 12:48:54;;;;;;;3.10;1.10;;;23.20;48.20;;;;;;10368395;28;20222;-14
2021/05/16 12:54:17;;;;;;;2.57;1.20;;;23.50;47.80;;;;;;10396254;28;20216;-14
2021/05/16 12:59:41;;;;;;;1.60;1.27;;;23.60;47.70;;;;;;10397866;28;20244;-10
2021/05/16 13:05:12;;;;;;;2.50;1.20;;;23.80;47.10;;;;;;10398963;28;20190;-13
2021/05/16 13:10:37;;;;;;;4.53;1.73;;;23.90;46.70;;;;;;10400703;28;20213;-14
2021/05/16 13:16:03;;;;;;;7.20;1.43;;;24.10;46.40;;;;;;10385420;28;20568;-12
2021/05/16 13:21:30;;;;;;;1.57;1.00;;;24.20;46.40;;;;;;10389540;28;20759;-13
2021/05/16 13:26:54;;;;;;;4.80;1.53;;;24.10;46.30;;;;;;10404930;28;20295;-15
2021/05/16 13:32:17;;;;;;;3.93;1.50;;;24.10;46.40;;;;;;10395753;28;20229;-14
2021/05/16 13:37:39;;;;;;;6.43;1.80;;;23.10;47.80;;;;;;10377972;28;20190;-15
2021/05/16 13:43:00;;;;;;;5.30;1.60;;;22.50;49.70;;;;;;10413726;28;20197;-11
2021/05/16 13:48:23;;;;;;;3.50;1.73;;;22.10;50.60;;;;;;10383003;28;20891;-13
2021/05/16 13:53:45;;;;;;;6.45;2.20;;;21.90;51.30;;;;;;10394190;28;20433;-14
2021/05/16 13:59:08;;;;;;;8.87;1.30;;;22.50;49.80;;;;;;10400445;28;20233;-12
2021/05/16 14:04:31;;;;;;;4.27;1.67;;;22.00;50.90;;;;;;10414024;28;20197;-13
2021/05/16 14:09:52;;;;;;;15.03;2.40;;;21.80;51.60;;;;;;10411847;28;20267;-12
2021/05/16 14:15:14;;;;;;;4.43;1.60;;;21.70;51.70;;;;;;10413524;28;20198;-14
2021/05/16 14:20:36;;;;;;;3.53;1.80;;;21.60;51.90;;;;;;10412398;28;20276;-14
2021/05/16 14:25:58;;;;;;;2.47;1.50;;;21.60;51.90;;;;;;10393146;28;20614;-15
2021/05/16 14:31:20;;;;;;;3.43;1.70;;;21.50;52.10;;;;;;10391217;28;20218;-15
2021/05/16 14:36:42;;;;;;;5.87;1.70;;;21.40;52.80;;;;;;10387139;28;20737;-12
2021/05/16 14:42:06;;;;;;;7.77;1.70;;;21.60;52.30;;;;;;10377425;28;20214;-14
2021/05/16 14:47:27;;;;;;;5.87;1.70;;;21.80;51.90;;;;;;10369272;28;20191;-13
2021/05/16 14:52:50;;;;;;;2.73;1.70;;;21.70;51.60;;;;;;10387053;28;20224;-15
2021/05/16 14:58:11;;;;;;;3.67;1.70;;;21.50;52.00;;;;;;10402803;28;20229;-14
2021/05/16 15:03:33;;;;;;;2.07;1.63;;;21.50;52.30;;;;;;10413098;28;20204;-14
2021/05/16 15:08:56;;;;;;;4.27;1.60;;;21.40;52.50;;;;;;10389512;28;20218;-14
2021/05/16 15:14:18;;;;;;;3.90;1.87;;;21.30;52.80;;;;;;10407994;28;20198;-14
2021/05/16 15:19:39;;;;;;;3.07;1.60;;;21.30;52.80;;;;;;10410792;28;20749;-14
2021/05/16 15:25:02;;;;;;;3.23;1.40;;;21.20;53.00;;;;;;10411394;28;20204;-14
2021/05/16 15:30:24;;;;;;;2.00;1.53;;;21.30;53.10;;;;;;10411135;28;20656;-14
2021/05/16 15:35:46;;;;;;;2.33;1.77;;;21.20;53.10;;;;;;10410563;28;20291;-13
2021/05/16 15:41:08;;;;;;;3.03;1.43;;;21.30;52.80;;;;;;10410225;28;20217;-14
2021/05/16 15:46:30;;;;;;;1.80;1.37;;;21.30;52.70;;;;;;10377378;28;20198;-12
2021/05/16 15:51:51;;;;;;;3.73;1.73;;;21.30;52.80;;;;;;10382133;28;20220;-12
2021/05/16 15:57:15;;;;;;;2.30;1.50;;;21.30;52.70;;;;;;10402044;28;20613;-12
2021/05/16 16:02:36;;;;;;;1.30;1.20;;;21.30;52.80;;;;;;10434600;23;20320;-12
2021/05/16 16:07:58;;;;;;;2.73;1.80;;;21.20;52.80;;;;;;10441378;28;20197;-13
2021/05/16 16:13:21;;;;;;;3.27;2.00;;;21.30;51.50;;;;;;10461160;28;20217;-12
2021/05/16 16:18:42;;;;;;;5.53;1.93;;;21.20;49.10;;;;;;10477392;28;20223;-12
2021/05/16 16:24:05;;;;;;;3.97;2.00;;;21.10;48.50;;;;;;10460978;28;20243;-12
2021/05/16 16:29:27;;;;;;;4.17;2.33;;;21.10;48.70;;;;;;10453778;28;20216;-13
2021/05/16 16:34:49;;;;;;;5.10;2.17;;;21.10;47.40;;;;;;10419300;28;20197;-13
2021/05/16 16:40:12;;;;;;;2.03;1.70;;;21.20;48.20;;;;;;10439639;28;20624;-12
2021/05/16 16:45:34;;;;;;;3.47;1.90;;;21.10;50.20;;;;;;10410752;28;20271;-12
2021/05/16 16:50:56;;;;;;;4.30;1.90;;;21.20;50.70;;;;;;10431742;28;20229;-11
2021/05/16 16:56:20;;;;;;;3.57;1.77;;;21.20;51.00;;;;;;10441842;28;20194;-11
2021/05/16 17:01:43;;;;;;;2.67;1.93;;;21.30;51.20;;;;;;10427898;28;20230;-12
2021/05/16 17:07:06;;;;;;;6.27;2.20;;;21.30;50.90;;;;;;10428708;28;20724;-11
2021/05/16 17:12:28;;;;;;;3.50;1.83;;;21.80;50.40;;;;;;10429509;28;20722;-12
2021/05/16 17:17:50;;;;;;;2.47;1.40;;;22.30;49.30;;;;;;10434112;28;20205;-13
2021/05/16 17:23:12;;;;;;;4.57;1.73;;;22.60;48.20;;;;;;10417187;28;20220;-13
2021/05/16 17:28:34;;;;;;;3.83;1.40;;;22.80;47.50;;;;;;10417136;28;20594;-13
2021/05/16 17:33:56;;;;;;;1.73;1.30;;;23.00;47.20;;;;;;10415821;28;20222;-13
2021/05/16 17:39:18;;;;;;;3.47;1.90;;;23.10;46.90;;;;;;10417132;28;20252;-14
2021/05/16 17:44:40;;;;;;;4.30;1.70;;;23.10;46.40;;;;;;10415370;28;20240;-13
2021/05/16 17:50:03;;;;;;;6.50;1.77;;;22.50;48.00;;;;;;10450004;28;20713;-13
2021/05/16 17:55:26;;;;;;;2.60;1.40;;;22.20;48.70;;;;;;10474222;28;20573;-13
2021/05/16 18:00:47;;;;;;;9.20;1.70;;;22.00;49.20;;;;;;10484142;28;20767;-13
2021/05/16 18:06:12;;;;;;;2.37;1.37;;;21.90;49.50;;;;;;10420966;28;20190;-13
2021/05/16 18:11:34;;;;;;;2.10;1.40;;;21.90;49.80;;;;;;10414534;28;20598;-12
2021/05/16 18:16:55;;;;;;;4.60;1.50;;;21.80;49.90;;;;;;10415212;28;20275;-13
2021/05/16 18:22:18;;;;;;;4.03;1.50;;;21.80;50.00;;;;;;10445773;28;20209;-11
2021/05/16 18:27:40;;;;;;;4.33;1.63;;;21.80;50.20;;;;;;10490815;28;20284;-12
2021/05/16 18:33:02;;;;;;;5.00;1.43;;;21.90;49.90;;;;;;10460353;28;20287;-13
2021/05/16 18:38:27;;;;;;;3.97;1.30;;;21.90;50.10;;;;;;10418982;28;20198;-13
2021/05/16 18:43:48;;;;;;;2.53;1.50;;;21.80;50.40;;;;;;10420720;28;20217;-14
2021/05/16 18:49:10;;;;;;;2.90;1.20;;;21.70;50.60;;;;;;10453673;28;20207;-13
2021/05/16 18:54:33;;;;;;;3.93;1.60;;;21.70;50.80;;;;;;10465402;28;20262;-12
2021/05/16 18:59:54;;;;;;;2.27;1.20;;;21.50;50.80;;;;;;10487100;28;20691;-13
2021/05/16 19:05:16;;;;;;;6.83;1.60;;;21.60;51.10;;;;;;10430640;28;20220;-11
2021/05/16 19:10:42;;;;;;;3.30;1.30;;;21.60;50.90;;;;;;10429877;28;20605;-13
2021/05/16 19:16:05;;;;;;;11.27;1.90;;;21.60;51.70;;;;;;10465809;28;20228;-12
2021/05/16 19:21:26;;;;;;;7.37;1.80;;;21.70;51.00;;;;;;10493200;28;20294;-12
2021/05/16 19:26:49;;;;;;;6.83;1.90;;;21.70;51.10;;;;;;10443256;28;20208;-12
2021/05/16 19:32:11;;;;;;;7.30;1.60;;;21.70;51.20;;;;;;10440315;28;20278;-13
2021/05/16 19:37:32;;;;;;;9.47;2.10;;;21.80;51.40;;;;;;10451915;28;20554;-12
2021/05/16 19:42:57;;;;;;;6.23;1.70;;;21.70;51.50;;;;;;10452293;28;20209;-12
2021/05/16 19:48:19;;;;;;;6.93;1.80;;;21.70;51.40;;;;;;10464707;28;20372;-13
2021/05/16 19:53:40;;;;;;;6.17;1.60;;;21.70;51.60;;;;;;10473755;28;20308;-12
2021/05/16 19:59:03;;;;;;;7.00;1.80;;;21.70;51.50;;;;;;10483326;28;20673;-11
2021/05/16 20:04:25;;;;;;;5.00;1.60;;;21.70;51.50;;;;;;10478741;28;20276;-13
2021/05/16 20:09:46;;;;;;;4.63;1.77;;;21.70;51.50;;;;;;10446714;28;20213;-13
2021/05/16 20:15:12;;;;;;;4.00;1.77;;;21.70;51.50;;;;;;10451038;28;20200;-12
2021/05/16 20:20:34;;;;;;;4.40;1.43;;;21.70;51.60;;;;;;10450913;28;20220;-13
2021/05/16 20:25:57;;;;;;;3.30;1.60;;;21.70;51.60;;;;;;10448788;28;20196;-13
2021/05/16 20:31:21;;;;;;;3.50;1.80;;;21.70;51.90;;;;;;10467592;28;20216;-12
2021/05/16 20:36:43;;;;;;;3.13;1.70;;;21.60;51.70;;;;;;10457931;28;20201;-13
2021/05/16 20:42:05;;;;;;;3.10;1.60;;;21.70;51.80;;;;;;10429982;28;20210;-13
2021/05/16 20:47:27;;;;;;;4.70;1.60;;;21.60;51.80;;;;;;10418355;28;20201;-12
2021/05/16 20:52:49;;;;;;;5.17;1.63;;;21.60;51.90;;;;;;10449264;28;20569;-11
2021/05/16 20:58:11;;;;;;;2.97;1.43;;;21.40;52.20;;;;;;10490065;28;20204;-12
2021/05/16 21:03:33;;;;;;;2.67;1.10;;;21.40;52.30;;;;;;10499006;28;20227;-13
2021/05/16 21:08:55;;;;;;;2.60;1.40;;;21.40;52.30;;;;;;10499310;28;20200;-13
2021/05/16 21:14:16;;;;;;;2.73;1.30;;;21.40;52.20;;;;;;10468216;28;20602;-11
2021/05/16 21:19:39;;;;;;;3.37;1.87;;;21.40;52.10;;;;;;10457892;28;20228;-12
2021/05/16 21:25:01;;;;;;;4.37;1.80;;;21.30;52.40;;;;;;10456880;28;20197;-12
2021/05/16 21:30:25;;;;;;;2.87;1.60;;;21.30;52.60;;;;;;10459086;28;20283;-12
2021/05/16 21:35:47;;;;;;;3.73;1.70;;;21.20;52.60;;;;;;10490072;28;20244;-13
2021/05/16 21:41:09;;;;;;;2.93;1.63;;;21.20;52.80;;;;;;10498254;28;20212;-13
2021/05/16 21:46:31;;;;;;;4.10;1.40;;;21.10;52.90;;;;;;10498382;28;20203;-12
2021/05/16 21:51:55;;;;;;;1.70;1.43;;;21.10;52.80;;;;;;10490362;28;20297;-13
2021/05/16 21:57:17;;;;;;;1.90;1.30;;;21.10;52.90;;;;;;10456300;28;20296;-12
2021/05/16 22:02:39;;;;;;;2.40;1.70;;;21.20;52.90;;;;;;10472185;22;20225;-15
2021/05/16 22:08:03;;;;;;;1.50;1.40;;;21.10;52.90;;;;;;10414518;28;20200;-11
2021/05/16 22:13:26;;;;;;;3.00;1.40;;;21.10;52.70;;;;;;10394580;28;20221;-11
2021/05/16 22:18:47;;;;;;;4.30;1.67;;;21.10;52.80;;;;;;10443783;28;20208;-13
2021/05/16 22:24:11;;;;;;;3.13;1.40;;;21.10;52.80;;;;;;10447089;28;20213;-12
2021/05/16 22:29:32;;;;;;;1.13;0.90;;;21.10;52.80;;;;;;10455580;28;20205;-12
2021/05/16 22:34:54;;;;;;;2.73;1.40;;;21.10;52.90;;;;;;10447614;28;20220;-14
2021/05/16 22:40:17;;;;;;;1.70;1.23;;;21.20;52.70;;;;;;10415724;28;20197;-15
2021/05/16 22:45:39;;;;;;;1.57;1.37;;;21.10;52.90;;;;;;10412466;28;20222;-12
2021/05/16 22:51:01;;;;;;;1.50;1.40;;;21.10;52.90;;;;;;10414365;28;20271;-11
2021/05/16 22:56:24;;;;;;;1.20;1.10;;;21.10;52.80;;;;;;10474337;28;20756;-12
2021/05/16 23:01:45;;;;;;;2.40;1.53;;;21.10;52.80;;;;;;10495206;28;20200;-14
2021/05/16 23:07:08;;;;;;;2.47;1.37;;;21.10;52.90;;;;;;10494492;28;20653;-12
2021/05/16 23:12:31;;;;;;;2.60;1.40;;;21.10;52.90;;;;;;10486136;28;20783;-12
2021/05/16 23:17:54;;;;;;;2.20;1.17;;;21.00;53.00;;;;;;10453166;28;20205;-13
2021/05/16 23:23:16;;;;;;;2.00;1.20;;;21.00;53.00;;;;;;10453628;28;20216;-11
2021/05/16 23:28:38;;;;;;;1.33;1.17;;;21.00;53.30;;;;;;10452553;28;20193;-14
2021/05/16 23:34:02;;;;;;;1.77;1.20;;;21.00;53.10;;;;;;10451485;28;20640;-14
2021/05/16 23:39:24;;;;;;;1.43;1.20;;;21.00;53.10;;;;;;10451622;28;20573;-14
2021/05/16 23:44:47;;;;;;;1.27;1.10;;;21.10;53.10;;;;;;10451756;28;20213;-15
2021/05/16 23:50:10;;;;;;;2.67;1.10;;;21.00;53.00;;;;;;10452863;28;20255;-13
2021/05/16 23:55:32;;;;;;;2.07;1.00;;;21.00;53.00;;;;;;10444131;28;20681;-12
